sensor_id;sensor_type;location;lat;lon;timestamp;P1;durP1;ratioP1;P2;durP2;ratioP2
19585;SDS011;9939;49.246;9.106;2023-12-29T00:02:15;5.47;;;2.90;;
19585;SDS011;9939;49.246;9.106;2023-12-29T00:04:42;4.93;;;2.50;;
19585;SDS011;9939;49.246;9.106;2023-12-29T00:07:09;5.20;;;3.07;;
19585;SDS011;9939;49.246;9.106;2023-12-29T00:09:37;6.23;;;3.07;;
19585;SDS011;9939;49.246;9.106;2023-12-29T00:12:08;6.17;;;2.93;;
19585;SDS011;9939;49.246;9.106;2023-12-29T00:14:39;6.53;;;3.53;;
19585;SDS011;9939;49.246;9.106;2023-12-29T00:17:07;6.77;;;3.70;;
19585;SDS011;9939;49.246;9.106;2023-12-29T00:19:34;5.60;;;3.63;;
19585;SDS011;9939;49.246;9.106;2023-12-29T00:22:01;6.13;;;3.63;;
19585;SDS011;9939;49.246;9.106;2023-12-29T00:24:30;5.93;;;3.70;;
19585;SDS011;9939;49.246;9.106;2023-12-29T00:27:00;8.53;;;3.83;;
19585;SDS011;9939;49.246;9.106;2023-12-29T00:29:28;8.80;;;4.10;;
19585;SDS011;9939;49.246;9.106;2023-12-29T00:32:00;8.73;;;4.20;;
19585;SDS011;9939;49.246;9.106;2023-12-29T00:34:30;7.03;;;4.00;;
19585;SDS011;9939;49.246;9.106;2023-12-29T00:36:58;7.47;;;3.60;;
19585;SDS011;9939;49.246;9.106;2023-12-29T00:39:25;10.03;;;4.07;;
19585;SDS011;9939;49.246;9.106;2023-12-29T00:41:58;6.30;;;3.80;;
19585;SDS011;9939;49.246;9.106;2023-12-29T00:44:25;9.37;;;4.50;;
19585;SDS011;9939;49.246;9.106;2023-12-29T00:46:52;10.53;;;5.33;;
19585;SDS011;9939;49.246;9.106;2023-12-29T00:49:20;8.20;;;4.60;;
19585;SDS011;9939;49.246;9.106;2023-12-29T00:51:48;10.33;;;4.60;;
19585;SDS011;9939;49.246;9.106;2023-12-29T00:54:15;7.30;;;4.17;;
19585;SDS011;9939;49.246;9.106;2023-12-29T00:56:49;9.60;;;4.70;;
19585;SDS011;9939;49.246;9.106;2023-12-29T00:59:18;7.43;;;4.53;;
19585;SDS011;9939;49.246;9.106;2023-12-29T01:01:46;7.53;;;4.23;;
19585;SDS011;9939;49.246;9.106;2023-12-29T01:04:13;5.93;;;4.00;;
19585;SDS011;9939;49.246;9.106;2023-12-29T01:06:41;8.03;;;4.33;;
19585;SDS011;9939;49.246;9.106;2023-12-29T01:09:08;7.27;;;4.30;;
19585;SDS011;9939;49.246;9.106;2023-12-29T01:11:37;9.27;;;4.30;;
19585;SDS011;9939;49.246;9.106;2023-12-29T01:14:04;8.23;;;4.40;;
19585;SDS011;9939;49.246;9.106;2023-12-29T01:16:32;10.30;;;4.60;;
19585;SDS011;9939;49.246;9.106;2023-12-29T01:18:59;9.30;;;4.43;;
19585;SDS011;9939;49.246;9.106;2023-12-29T01:21:27;7.70;;;4.73;;
19585;SDS011;9939;49.246;9.106;2023-12-29T01:23:54;7.80;;;4.90;;
19585;SDS011;9939;49.246;9.106;2023-12-29T01:26:21;11.77;;;4.70;;
19585;SDS011;9939;49.246;9.106;2023-12-29T01:28:49;6.93;;;4.63;;
19585;SDS011;9939;49.246;9.106;2023-12-29T01:31:16;7.17;;;4.30;;
19585;SDS011;9939;49.246;9.106;2023-12-29T01:33:43;11.20;;;4.63;;
19585;SDS011;9939;49.246;9.106;2023-12-29T01:36:16;7.23;;;4.37;;
19585;SDS011;9939;49.246;9.106;2023-12-29T01:38:51;9.20;;;5.10;;
19585;SDS011;9939;49.246;9.106;2023-12-29T01:41:21;9.00;;;4.83;;
19585;SDS011;9939;49.246;9.106;2023-12-29T01:46:28;7.27;;;4.20;;
19585;SDS011;9939;49.246;9.106;2023-12-29T01:48:57;10.03;;;4.40;;
19585;SDS011;9939;49.246;9.106;2023-12-29T01:51:25;7.73;;;4.43;;
19585;SDS011;9939;49.246;9.106;2023-12-29T01:53:55;7.93;;;4.60;;
19585;SDS011;9939;49.246;9.106;2023-12-29T01:56:24;6.50;;;4.13;;
19585;SDS011;9939;49.246;9.106;2023-12-29T01:58:52;6.67;;;4.37;;
19585;SDS011;9939;49.246;9.106;2023-12-29T02:01:20;6.63;;;4.33;;
19585;SDS011;9939;49.246;9.106;2023-12-29T02:03:48;9.27;;;5.17;;
19585;SDS011;9939;49.246;9.106;2023-12-29T02:06:15;8.57;;;5.33;;
19585;SDS011;9939;49.246;9.106;2023-12-29T02:08:44;10.10;;;4.73;;
19585;SDS011;9939;49.246;9.106;2023-12-29T02:11:11;7.40;;;4.57;;
19585;SDS011;9939;49.246;9.106;2023-12-29T02:13:39;8.67;;;4.60;;
19585;SDS011;9939;49.246;9.106;2023-12-29T02:16:09;9.13;;;4.70;;
19585;SDS011;9939;49.246;9.106;2023-12-29T02:18:42;10.10;;;4.83;;
19585;SDS011;9939;49.246;9.106;2023-12-29T02:21:12;9.17;;;4.83;;
19585;SDS011;9939;49.246;9.106;2023-12-29T02:23:39;8.67;;;5.27;;
19585;SDS011;9939;49.246;9.106;2023-12-29T02:26:09;9.80;;;5.30;;
19585;SDS011;9939;49.246;9.106;2023-12-29T02:28:42;9.00;;;5.10;;
19585;SDS011;9939;49.246;9.106;2023-12-29T02:31:13;8.77;;;5.07;;
19585;SDS011;9939;49.246;9.106;2023-12-29T02:33:44;8.27;;;4.70;;
19585;SDS011;9939;49.246;9.106;2023-12-29T02:36:14;8.07;;;4.60;;
19585;SDS011;9939;49.246;9.106;2023-12-29T02:38:43;7.50;;;4.77;;
19585;SDS011;9939;49.246;9.106;2023-12-29T02:41:11;7.50;;;4.73;;
19585;SDS011;9939;49.246;9.106;2023-12-29T02:43:39;7.70;;;4.80;;
19585;SDS011;9939;49.246;9.106;2023-12-29T02:46:07;10.50;;;4.87;;
19585;SDS011;9939;49.246;9.106;2023-12-29T02:48:34;7.57;;;4.60;;
19585;SDS011;9939;49.246;9.106;2023-12-29T02:51:01;8.20;;;5.13;;
19585;SDS011;9939;49.246;9.106;2023-12-29T02:53:28;6.83;;;4.60;;
19585;SDS011;9939;49.246;9.106;2023-12-29T02:55:56;8.00;;;5.00;;
19585;SDS011;9939;49.246;9.106;2023-12-29T02:58:23;7.17;;;4.67;;
19585;SDS011;9939;49.246;9.106;2023-12-29T03:00:50;10.03;;;5.60;;
19585;SDS011;9939;49.246;9.106;2023-12-29T03:03:17;10.30;;;4.93;;
19585;SDS011;9939;49.246;9.106;2023-12-29T03:05:45;10.17;;;5.20;;
19585;SDS011;9939;49.246;9.106;2023-12-29T03:08:12;7.30;;;4.60;;
19585;SDS011;9939;49.246;9.106;2023-12-29T03:10:39;6.87;;;4.20;;
19585;SDS011;9939;49.246;9.106;2023-12-29T03:13:06;8.87;;;4.80;;
19585;SDS011;9939;49.246;9.106;2023-12-29T03:15:34;11.47;;;4.67;;
19585;SDS011;9939;49.246;9.106;2023-12-29T03:18:02;7.23;;;4.47;;
19585;SDS011;9939;49.246;9.106;2023-12-29T03:20:30;9.40;;;4.93;;
19585;SDS011;9939;49.246;9.106;2023-12-29T03:22:57;11.13;;;4.83;;
19585;SDS011;9939;49.246;9.106;2023-12-29T03:25:24;9.67;;;5.00;;
19585;SDS011;9939;49.246;9.106;2023-12-29T03:27:51;8.20;;;4.73;;
19585;SDS011;9939;49.246;9.106;2023-12-29T03:30:20;11.50;;;4.90;;
19585;SDS011;9939;49.246;9.106;2023-12-29T03:32:48;6.67;;;4.40;;
19585;SDS011;9939;49.246;9.106;2023-12-29T03:35:15;8.80;;;4.43;;
19585;SDS011;9939;49.246;9.106;2023-12-29T03:37:43;7.40;;;4.23;;
19585;SDS011;9939;49.246;9.106;2023-12-29T03:40:10;7.13;;;4.10;;
19585;SDS011;9939;49.246;9.106;2023-12-29T03:42:39;7.60;;;4.70;;
19585;SDS011;9939;49.246;9.106;2023-12-29T03:45:07;7.40;;;4.53;;
19585;SDS011;9939;49.246;9.106;2023-12-29T03:47:35;7.43;;;4.00;;
19585;SDS011;9939;49.246;9.106;2023-12-29T03:50:03;6.90;;;4.10;;
19585;SDS011;9939;49.246;9.106;2023-12-29T03:52:31;7.03;;;3.70;;
19585;SDS011;9939;49.246;9.106;2023-12-29T03:54:58;5.90;;;3.70;;
19585;SDS011;9939;49.246;9.106;2023-12-29T03:57:25;9.13;;;4.37;;
19585;SDS011;9939;49.246;9.106;2023-12-29T03:59:52;7.33;;;3.90;;
19585;SDS011;9939;49.246;9.106;2023-12-29T04:02:19;6.60;;;4.33;;
19585;SDS011;9939;49.246;9.106;2023-12-29T04:04:46;8.57;;;4.20;;
19585;SDS011;9939;49.246;9.106;2023-12-29T04:07:13;7.37;;;4.27;;
19585;SDS011;9939;49.246;9.106;2023-12-29T04:09:40;9.67;;;4.43;;
19585;SDS011;9939;49.246;9.106;2023-12-29T04:12:07;7.27;;;4.27;;
19585;SDS011;9939;49.246;9.106;2023-12-29T04:14:35;8.33;;;4.40;;
19585;SDS011;9939;49.246;9.106;2023-12-29T04:17:02;8.67;;;4.60;;
19585;SDS011;9939;49.246;9.106;2023-12-29T04:19:31;6.53;;;4.13;;
19585;SDS011;9939;49.246;9.106;2023-12-29T04:21:58;7.13;;;4.30;;
19585;SDS011;9939;49.246;9.106;2023-12-29T04:24:25;8.60;;;4.10;;
19585;SDS011;9939;49.246;9.106;2023-12-29T04:26:53;6.00;;;3.67;;
19585;SDS011;9939;49.246;9.106;2023-12-29T04:29:20;5.87;;;3.53;;
19585;SDS011;9939;49.246;9.106;2023-12-29T04:31:47;7.67;;;3.57;;
19585;SDS011;9939;49.246;9.106;2023-12-29T04:34:14;6.60;;;3.63;;
19585;SDS011;9939;49.246;9.106;2023-12-29T04:36:41;6.23;;;3.13;;
19585;SDS011;9939;49.246;9.106;2023-12-29T04:39:08;5.83;;;3.90;;
19585;SDS011;9939;49.246;9.106;2023-12-29T04:41:35;5.10;;;2.90;;
19585;SDS011;9939;49.246;9.106;2023-12-29T04:44:02;5.73;;;2.97;;
19585;SDS011;9939;49.246;9.106;2023-12-29T04:46:30;6.67;;;3.23;;
19585;SDS011;9939;49.246;9.106;2023-12-29T04:48:57;6.73;;;3.03;;
19585;SDS011;9939;49.246;9.106;2023-12-29T04:51:24;4.23;;;2.83;;
19585;SDS011;9939;49.246;9.106;2023-12-29T04:53:51;7.70;;;2.97;;
19585;SDS011;9939;49.246;9.106;2023-12-29T04:56:18;4.40;;;2.67;;
19585;SDS011;9939;49.246;9.106;2023-12-29T04:58:45;4.97;;;3.20;;
19585;SDS011;9939;49.246;9.106;2023-12-29T05:01:12;5.73;;;2.93;;
19585;SDS011;9939;49.246;9.106;2023-12-29T05:03:39;6.00;;;2.90;;
19585;SDS011;9939;49.246;9.106;2023-12-29T05:06:06;5.17;;;2.73;;
19585;SDS011;9939;49.246;9.106;2023-12-29T05:08:33;4.13;;;2.63;;
19585;SDS011;9939;49.246;9.106;2023-12-29T05:11:01;4.43;;;3.00;;
19585;SDS011;9939;49.246;9.106;2023-12-29T05:13:28;7.73;;;2.87;;
19585;SDS011;9939;49.246;9.106;2023-12-29T05:15:56;5.63;;;2.70;;
19585;SDS011;9939;49.246;9.106;2023-12-29T05:18:23;4.87;;;2.60;;
19585;SDS011;9939;49.246;9.106;2023-12-29T05:20:50;4.23;;;2.80;;
19585;SDS011;9939;49.246;9.106;2023-12-29T05:23:17;5.40;;;3.20;;
19585;SDS011;9939;49.246;9.106;2023-12-29T05:25:44;5.37;;;2.93;;
19585;SDS011;9939;49.246;9.106;2023-12-29T05:28:11;4.97;;;2.70;;
19585;SDS011;9939;49.246;9.106;2023-12-29T05:30:38;7.33;;;2.93;;
19585;SDS011;9939;49.246;9.106;2023-12-29T05:33:05;5.77;;;2.80;;
19585;SDS011;9939;49.246;9.106;2023-12-29T05:35:32;4.77;;;2.80;;
19585;SDS011;9939;49.246;9.106;2023-12-29T05:37:59;6.83;;;3.47;;
19585;SDS011;9939;49.246;9.106;2023-12-29T05:40:27;10.13;;;3.70;;
19585;SDS011;9939;49.246;9.106;2023-12-29T05:42:55;7.10;;;3.67;;
19585;SDS011;9939;49.246;9.106;2023-12-29T05:45:22;6.33;;;3.30;;
19585;SDS011;9939;49.246;9.106;2023-12-29T05:47:49;6.83;;;3.77;;
19585;SDS011;9939;49.246;9.106;2023-12-29T05:50:16;6.03;;;3.43;;
19585;SDS011;9939;49.246;9.106;2023-12-29T05:52:43;6.50;;;3.50;;
19585;SDS011;9939;49.246;9.106;2023-12-29T05:55:10;6.40;;;3.70;;
19585;SDS011;9939;49.246;9.106;2023-12-29T05:57:37;7.10;;;3.90;;
19585;SDS011;9939;49.246;9.106;2023-12-29T06:00:05;5.70;;;3.17;;
19585;SDS011;9939;49.246;9.106;2023-12-29T06:02:37;8.23;;;4.00;;
19585;SDS011;9939;49.246;9.106;2023-12-29T06:05:04;6.67;;;3.93;;
19585;SDS011;9939;49.246;9.106;2023-12-29T06:07:32;7.10;;;3.67;;
19585;SDS011;9939;49.246;9.106;2023-12-29T06:10:00;5.93;;;3.53;;
19585;SDS011;9939;49.246;9.106;2023-12-29T06:12:27;6.20;;;3.53;;
19585;SDS011;9939;49.246;9.106;2023-12-29T06:14:54;7.07;;;3.57;;
19585;SDS011;9939;49.246;9.106;2023-12-29T06:17:21;6.17;;;3.97;;
19585;SDS011;9939;49.246;9.106;2023-12-29T06:19:48;6.20;;;3.73;;
19585;SDS011;9939;49.246;9.106;2023-12-29T06:22:16;6.93;;;3.97;;
19585;SDS011;9939;49.246;9.106;2023-12-29T06:24:43;6.17;;;3.47;;
19585;SDS011;9939;49.246;9.106;2023-12-29T06:27:10;7.40;;;3.40;;
19585;SDS011;9939;49.246;9.106;2023-12-29T06:29:40;5.40;;;3.20;;
19585;SDS011;9939;49.246;9.106;2023-12-29T06:32:09;7.27;;;3.27;;
19585;SDS011;9939;49.246;9.106;2023-12-29T06:34:36;6.10;;;3.23;;
19585;SDS011;9939;49.246;9.106;2023-12-29T06:37:03;8.13;;;3.90;;
19585;SDS011;9939;49.246;9.106;2023-12-29T06:39:30;5.57;;;3.13;;
19585;SDS011;9939;49.246;9.106;2023-12-29T06:41:57;5.10;;;3.50;;
19585;SDS011;9939;49.246;9.106;2023-12-29T06:44:24;6.37;;;3.50;;
19585;SDS011;9939;49.246;9.106;2023-12-29T06:46:51;7.33;;;3.30;;
19585;SDS011;9939;49.246;9.106;2023-12-29T06:49:18;5.80;;;3.57;;
19585;SDS011;9939;49.246;9.106;2023-12-29T06:51:45;6.67;;;3.23;;
19585;SDS011;9939;49.246;9.106;2023-12-29T06:54:13;6.07;;;3.60;;
19585;SDS011;9939;49.246;9.106;2023-12-29T06:56:40;4.67;;;2.87;;
19585;SDS011;9939;49.246;9.106;2023-12-29T06:59:07;5.63;;;2.97;;
19585;SDS011;9939;49.246;9.106;2023-12-29T07:01:38;5.93;;;3.07;;
19585;SDS011;9939;49.246;9.106;2023-12-29T07:04:06;5.43;;;3.10;;
19585;SDS011;9939;49.246;9.106;2023-12-29T07:06:36;6.40;;;3.00;;
19585;SDS011;9939;49.246;9.106;2023-12-29T07:09:04;4.63;;;2.83;;
19585;SDS011;9939;49.246;9.106;2023-12-29T07:11:32;6.37;;;3.23;;
19585;SDS011;9939;49.246;9.106;2023-12-29T07:13:59;9.10;;;4.10;;
19585;SDS011;9939;49.246;9.106;2023-12-29T07:16:26;6.30;;;3.23;;
19585;SDS011;9939;49.246;9.106;2023-12-29T07:18:53;6.50;;;3.73;;
19585;SDS011;9939;49.246;9.106;2023-12-29T07:21:21;5.03;;;3.00;;
19585;SDS011;9939;49.246;9.106;2023-12-29T07:23:48;5.37;;;3.40;;
19585;SDS011;9939;49.246;9.106;2023-12-29T07:26:15;6.37;;;3.17;;
19585;SDS011;9939;49.246;9.106;2023-12-29T07:28:42;6.37;;;3.40;;
19585;SDS011;9939;49.246;9.106;2023-12-29T07:31:09;6.03;;;3.60;;
19585;SDS011;9939;49.246;9.106;2023-12-29T07:33:37;7.97;;;3.50;;
19585;SDS011;9939;49.246;9.106;2023-12-29T07:36:04;4.97;;;3.17;;
19585;SDS011;9939;49.246;9.106;2023-12-29T07:38:31;6.57;;;3.30;;
19585;SDS011;9939;49.246;9.106;2023-12-29T07:40:58;9.90;;;4.07;;
19585;SDS011;9939;49.246;9.106;2023-12-29T07:43:25;7.67;;;3.33;;
19585;SDS011;9939;49.246;9.106;2023-12-29T07:45:52;7.80;;;4.10;;
19585;SDS011;9939;49.246;9.106;2023-12-29T07:48:20;7.37;;;4.03;;
19585;SDS011;9939;49.246;9.106;2023-12-29T07:50:47;6.13;;;3.57;;
19585;SDS011;9939;49.246;9.106;2023-12-29T07:53:14;6.80;;;3.30;;
19585;SDS011;9939;49.246;9.106;2023-12-29T07:55:42;7.10;;;3.60;;
19585;SDS011;9939;49.246;9.106;2023-12-29T07:58:14;9.00;;;3.30;;
19585;SDS011;9939;49.246;9.106;2023-12-29T08:00:42;5.57;;;3.20;;
19585;SDS011;9939;49.246;9.106;2023-12-29T08:03:09;6.80;;;3.27;;
19585;SDS011;9939;49.246;9.106;2023-12-29T08:05:36;7.20;;;3.10;;
19585;SDS011;9939;49.246;9.106;2023-12-29T08:08:03;4.77;;;3.00;;
19585;SDS011;9939;49.246;9.106;2023-12-29T08:10:31;8.10;;;2.80;;
19585;SDS011;9939;49.246;9.106;2023-12-29T08:13:00;6.10;;;3.13;;
19585;SDS011;9939;49.246;9.106;2023-12-29T08:15:27;5.57;;;3.53;;
19585;SDS011;9939;49.246;9.106;2023-12-29T08:17:55;6.13;;;3.57;;
19585;SDS011;9939;49.246;9.106;2023-12-29T08:20:22;7.07;;;3.30;;
19585;SDS011;9939;49.246;9.106;2023-12-29T08:22:50;6.80;;;3.57;;
19585;SDS011;9939;49.246;9.106;2023-12-29T08:25:17;5.40;;;3.43;;
19585;SDS011;9939;49.246;9.106;2023-12-29T08:27:45;6.87;;;3.37;;
19585;SDS011;9939;49.246;9.106;2023-12-29T08:30:12;5.63;;;3.23;;
19585;SDS011;9939;49.246;9.106;2023-12-29T08:32:39;8.30;;;3.57;;
19585;SDS011;9939;49.246;9.106;2023-12-29T08:35:07;6.10;;;3.50;;
19585;SDS011;9939;49.246;9.106;2023-12-29T08:37:34;7.70;;;3.80;;
19585;SDS011;9939;49.246;9.106;2023-12-29T08:40:01;6.80;;;3.73;;
19585;SDS011;9939;49.246;9.106;2023-12-29T08:42:28;6.17;;;3.50;;
19585;SDS011;9939;49.246;9.106;2023-12-29T08:44:57;7.23;;;4.13;;
19585;SDS011;9939;49.246;9.106;2023-12-29T08:47:26;8.83;;;4.63;;
19585;SDS011;9939;49.246;9.106;2023-12-29T08:49:53;7.33;;;4.03;;
19585;SDS011;9939;49.246;9.106;2023-12-29T08:52:21;6.77;;;3.60;;
19585;SDS011;9939;49.246;9.106;2023-12-29T08:54:48;6.17;;;3.57;;
19585;SDS011;9939;49.246;9.106;2023-12-29T08:57:15;6.20;;;3.63;;
19585;SDS011;9939;49.246;9.106;2023-12-29T08:59:42;5.47;;;3.17;;
19585;SDS011;9939;49.246;9.106;2023-12-29T09:02:09;5.10;;;3.03;;
19585;SDS011;9939;49.246;9.106;2023-12-29T09:04:36;5.47;;;3.00;;
19585;SDS011;9939;49.246;9.106;2023-12-29T09:07:03;5.40;;;3.23;;
19585;SDS011;9939;49.246;9.106;2023-12-29T09:09:32;4.63;;;2.80;;
19585;SDS011;9939;49.246;9.106;2023-12-29T09:11:59;5.03;;;2.70;;
19585;SDS011;9939;49.246;9.106;2023-12-29T09:14:33;4.33;;;2.87;;
19585;SDS011;9939;49.246;9.106;2023-12-29T09:17:01;4.97;;;2.63;;
19585;SDS011;9939;49.246;9.106;2023-12-29T09:19:28;5.90;;;2.80;;
19585;SDS011;9939;49.246;9.106;2023-12-29T09:22:05;5.43;;;2.73;;
19585;SDS011;9939;49.246;9.106;2023-12-29T09:24:32;4.87;;;2.27;;
19585;SDS011;9939;49.246;9.106;2023-12-29T09:26:59;2.97;;;2.27;;
19585;SDS011;9939;49.246;9.106;2023-12-29T09:29:26;4.77;;;1.93;;
19585;SDS011;9939;49.246;9.106;2023-12-29T09:31:53;4.70;;;2.47;;
19585;SDS011;9939;49.246;9.106;2023-12-29T09:34:20;3.70;;;2.27;;
19585;SDS011;9939;49.246;9.106;2023-12-29T09:36:47;3.53;;;2.20;;
19585;SDS011;9939;49.246;9.106;2023-12-29T09:39:14;3.90;;;2.00;;
19585;SDS011;9939;49.246;9.106;2023-12-29T09:41:43;5.17;;;2.20;;
19585;SDS011;9939;49.246;9.106;2023-12-29T09:44:14;7.10;;;2.93;;
19585;SDS011;9939;49.246;9.106;2023-12-29T09:46:42;3.37;;;2.17;;
19585;SDS011;9939;49.246;9.106;2023-12-29T09:49:11;5.20;;;2.47;;
19585;SDS011;9939;49.246;9.106;2023-12-29T09:51:39;4.40;;;2.20;;
19585;SDS011;9939;49.246;9.106;2023-12-29T09:54:08;3.77;;;1.90;;
19585;SDS011;9939;49.246;9.106;2023-12-29T09:56:39;4.77;;;2.57;;
19585;SDS011;9939;49.246;9.106;2023-12-29T09:59:11;4.40;;;2.17;;
19585;SDS011;9939;49.246;9.106;2023-12-29T10:01:38;5.13;;;2.30;;
19585;SDS011;9939;49.246;9.106;2023-12-29T10:04:07;3.93;;;2.13;;
19585;SDS011;9939;49.246;9.106;2023-12-29T10:06:36;6.30;;;2.53;;
19585;SDS011;9939;49.246;9.106;2023-12-29T10:09:05;4.03;;;2.23;;
19585;SDS011;9939;49.246;9.106;2023-12-29T10:11:37;4.50;;;2.00;;
19585;SDS011;9939;49.246;9.106;2023-12-29T10:14:09;2.97;;;1.97;;
19585;SDS011;9939;49.246;9.106;2023-12-29T10:16:52;3.17;;;2.03;;
19585;SDS011;9939;49.246;9.106;2023-12-29T10:19:36;2.97;;;2.10;;
19585;SDS011;9939;49.246;9.106;2023-12-29T10:22:11;3.37;;;1.83;;
19585;SDS011;9939;49.246;9.106;2023-12-29T10:24:43;5.77;;;1.80;;
19585;SDS011;9939;49.246;9.106;2023-12-29T10:27:13;2.77;;;1.73;;
19585;SDS011;9939;49.246;9.106;2023-12-29T10:29:40;4.17;;;1.70;;
19585;SDS011;9939;49.246;9.106;2023-12-29T10:32:07;3.37;;;1.80;;
19585;SDS011;9939;49.246;9.106;2023-12-29T10:34:36;2.77;;;1.40;;
19585;SDS011;9939;49.246;9.106;2023-12-29T10:37:03;1.97;;;1.40;;
19585;SDS011;9939;49.246;9.106;2023-12-29T10:39:35;2.20;;;1.40;;
19585;SDS011;9939;49.246;9.106;2023-12-29T10:42:03;2.53;;;1.50;;
19585;SDS011;9939;49.246;9.106;2023-12-29T10:44:33;1.57;;;1.30;;
19585;SDS011;9939;49.246;9.106;2023-12-29T10:47:07;2.00;;;1.30;;
19585;SDS011;9939;49.246;9.106;2023-12-29T10:49:38;3.10;;;1.40;;
19585;SDS011;9939;49.246;9.106;2023-12-29T10:52:10;2.80;;;1.50;;
19585;SDS011;9939;49.246;9.106;2023-12-29T10:54:40;3.63;;;1.33;;
19585;SDS011;9939;49.246;9.106;2023-12-29T10:57:11;2.33;;;1.37;;
19585;SDS011;9939;49.246;9.106;2023-12-29T10:59:39;2.77;;;1.40;;
19585;SDS011;9939;49.246;9.106;2023-12-29T11:02:06;3.50;;;1.30;;
19585;SDS011;9939;49.246;9.106;2023-12-29T11:04:41;1.00;;;0.93;;
19585;SDS011;9939;49.246;9.106;2023-12-29T11:07:08;1.00;;;0.90;;
19585;SDS011;9939;49.246;9.106;2023-12-29T11:09:39;2.73;;;1.20;;
19585;SDS011;9939;49.246;9.106;2023-12-29T11:12:08;1.77;;;1.10;;
19585;SDS011;9939;49.246;9.106;2023-12-29T11:14:36;1.53;;;1.13;;
19585;SDS011;9939;49.246;9.106;2023-12-29T11:17:03;1.87;;;0.90;;
19585;SDS011;9939;49.246;9.106;2023-12-29T11:19:32;1.57;;;1.10;;
19585;SDS011;9939;49.246;9.106;2023-12-29T11:22:00;1.73;;;0.90;;
19585;SDS011;9939;49.246;9.106;2023-12-29T11:24:28;3.33;;;1.20;;
19585;SDS011;9939;49.246;9.106;2023-12-29T11:27:06;3.13;;;1.27;;
19585;SDS011;9939;49.246;9.106;2023-12-29T11:29:34;2.37;;;1.10;;
19585;SDS011;9939;49.246;9.106;2023-12-29T11:32:03;2.00;;;1.30;;
19585;SDS011;9939;49.246;9.106;2023-12-29T11:34:34;3.17;;;1.30;;
19585;SDS011;9939;49.246;9.106;2023-12-29T11:40:22;1.10;;;1.00;;
19585;SDS011;9939;49.246;9.106;2023-12-29T11:43:07;2.80;;;1.10;;
19585;SDS011;9939;49.246;9.106;2023-12-29T11:45:39;1.57;;;1.07;;
19585;SDS011;9939;49.246;9.106;2023-12-29T11:48:06;3.80;;;1.50;;
19585;SDS011;9939;49.246;9.106;2023-12-29T11:50:34;4.60;;;1.40;;
19585;SDS011;9939;49.246;9.106;2023-12-29T11:53:07;2.10;;;1.00;;
19585;SDS011;9939;49.246;9.106;2023-12-29T11:55:38;1.83;;;1.27;;
19585;SDS011;9939;49.246;9.106;2023-12-29T11:58:24;2.20;;;1.17;;
19585;SDS011;9939;49.246;9.106;2023-12-29T12:00:55;2.07;;;1.23;;
19585;SDS011;9939;49.246;9.106;2023-12-29T12:03:24;2.10;;;1.27;;
19585;SDS011;9939;49.246;9.106;2023-12-29T12:05:53;3.43;;;1.40;;
19585;SDS011;9939;49.246;9.106;2023-12-29T12:13:55;2.50;;;1.20;;
19585;SDS011;9939;49.246;9.106;2023-12-29T12:19:09;1.67;;;1.53;;
19585;SDS011;9939;49.246;9.106;2023-12-29T12:21:36;2.43;;;1.50;;
19585;SDS011;9939;49.246;9.106;2023-12-29T12:24:04;2.07;;;1.47;;
19585;SDS011;9939;49.246;9.106;2023-12-29T12:26:32;2.07;;;1.30;;
19585;SDS011;9939;49.246;9.106;2023-12-29T12:29:00;2.50;;;1.20;;
19585;SDS011;9939;49.246;9.106;2023-12-29T12:31:27;2.23;;;1.30;;
19585;SDS011;9939;49.246;9.106;2023-12-29T12:33:55;1.40;;;1.17;;
19585;SDS011;9939;49.246;9.106;2023-12-29T12:36:22;2.63;;;1.20;;
19585;SDS011;9939;49.246;9.106;2023-12-29T12:38:55;2.40;;;1.30;;
19585;SDS011;9939;49.246;9.106;2023-12-29T12:41:23;2.40;;;1.30;;
19585;SDS011;9939;49.246;9.106;2023-12-29T12:44:08;5.43;;;1.77;;
19585;SDS011;9939;49.246;9.106;2023-12-29T12:49:14;2.87;;;1.53;;
19585;SDS011;9939;49.246;9.106;2023-12-29T12:51:42;2.30;;;1.23;;
19585;SDS011;9939;49.246;9.106;2023-12-29T12:54:10;2.17;;;1.40;;
19585;SDS011;9939;49.246;9.106;2023-12-29T12:56:40;2.80;;;1.60;;
19585;SDS011;9939;49.246;9.106;2023-12-29T12:59:11;2.93;;;1.40;;
19585;SDS011;9939;49.246;9.106;2023-12-29T13:01:39;2.23;;;1.40;;
19585;SDS011;9939;49.246;9.106;2023-12-29T13:04:08;5.03;;;1.77;;
19585;SDS011;9939;49.246;9.106;2023-12-29T13:06:39;2.37;;;1.53;;
19585;SDS011;9939;49.246;9.106;2023-12-29T13:09:08;1.97;;;1.50;;
19585;SDS011;9939;49.246;9.106;2023-12-29T13:11:39;2.57;;;1.60;;
19585;SDS011;9939;49.246;9.106;2023-12-29T13:14:07;2.73;;;1.67;;
19585;SDS011;9939;49.246;9.106;2023-12-29T13:16:35;2.93;;;1.77;;
19585;SDS011;9939;49.246;9.106;2023-12-29T13:19:17;2.90;;;1.47;;
19585;SDS011;9939;49.246;9.106;2023-12-29T13:21:52;2.20;;;1.50;;
19585;SDS011;9939;49.246;9.106;2023-12-29T13:24:23;2.73;;;1.53;;
19585;SDS011;9939;49.246;9.106;2023-12-29T13:26:57;3.90;;;1.80;;
19585;SDS011;9939;49.246;9.106;2023-12-29T13:29:28;3.20;;;1.63;;
19585;SDS011;9939;49.246;9.106;2023-12-29T13:32:00;3.90;;;1.70;;
19585;SDS011;9939;49.246;9.106;2023-12-29T13:42:34;5.07;;;2.03;;
19585;SDS011;9939;49.246;9.106;2023-12-29T13:45:02;4.33;;;1.83;;
19585;SDS011;9939;49.246;9.106;2023-12-29T13:47:31;5.00;;;1.87;;
19585;SDS011;9939;49.246;9.106;2023-12-29T13:50:00;4.20;;;1.97;;
19585;SDS011;9939;49.246;9.106;2023-12-29T13:52:27;2.47;;;1.90;;
19585;SDS011;9939;49.246;9.106;2023-12-29T13:54:54;3.17;;;1.87;;
19585;SDS011;9939;49.246;9.106;2023-12-29T13:57:31;4.23;;;2.40;;
19585;SDS011;9939;49.246;9.106;2023-12-29T14:00:17;4.40;;;2.00;;
19585;SDS011;9939;49.246;9.106;2023-12-29T14:02:57;3.40;;;2.03;;
19585;SDS011;9939;49.246;9.106;2023-12-29T14:10:36;4.83;;;2.50;;
19585;SDS011;9939;49.246;9.106;2023-12-29T14:13:07;2.97;;;1.87;;
19585;SDS011;9939;49.246;9.106;2023-12-29T14:15:36;2.97;;;1.70;;
19585;SDS011;9939;49.246;9.106;2023-12-29T14:18:05;2.43;;;1.50;;
19585;SDS011;9939;49.246;9.106;2023-12-29T14:20:53;1.83;;;1.33;;
19585;SDS011;9939;49.246;9.106;2023-12-29T14:23:20;2.17;;;1.43;;
19585;SDS011;9939;49.246;9.106;2023-12-29T14:25:47;2.07;;;1.60;;
19585;SDS011;9939;49.246;9.106;2023-12-29T14:28:18;3.90;;;1.70;;
19585;SDS011;9939;49.246;9.106;2023-12-29T14:30:49;5.50;;;1.80;;
19585;SDS011;9939;49.246;9.106;2023-12-29T14:33:28;2.10;;;1.43;;
19585;SDS011;9939;49.246;9.106;2023-12-29T14:35:56;3.47;;;1.90;;
19585;SDS011;9939;49.246;9.106;2023-12-29T14:38:23;3.17;;;1.87;;
19585;SDS011;9939;49.246;9.106;2023-12-29T14:40:51;2.60;;;1.60;;
19585;SDS011;9939;49.246;9.106;2023-12-29T14:43:18;2.77;;;1.60;;
19585;SDS011;9939;49.246;9.106;2023-12-29T14:45:45;4.40;;;1.90;;
19585;SDS011;9939;49.246;9.106;2023-12-29T14:48:12;3.80;;;2.20;;
19585;SDS011;9939;49.246;9.106;2023-12-29T14:50:39;3.90;;;2.10;;
19585;SDS011;9939;49.246;9.106;2023-12-29T14:53:11;2.93;;;1.60;;
19585;SDS011;9939;49.246;9.106;2023-12-29T14:55:38;3.97;;;1.93;;
19585;SDS011;9939;49.246;9.106;2023-12-29T14:58:06;3.30;;;1.70;;
19585;SDS011;9939;49.246;9.106;2023-12-29T15:00:33;5.83;;;1.90;;
19585;SDS011;9939;49.246;9.106;2023-12-29T15:03:00;3.60;;;2.00;;
19585;SDS011;9939;49.246;9.106;2023-12-29T15:05:27;4.90;;;2.40;;
19585;SDS011;9939;49.246;9.106;2023-12-29T15:07:54;4.50;;;2.30;;
19585;SDS011;9939;49.246;9.106;2023-12-29T15:10:21;4.13;;;1.90;;
19585;SDS011;9939;49.246;9.106;2023-12-29T15:12:49;4.03;;;2.10;;
19585;SDS011;9939;49.246;9.106;2023-12-29T15:15:16;4.13;;;1.83;;
19585;SDS011;9939;49.246;9.106;2023-12-29T15:17:43;3.83;;;1.87;;
19585;SDS011;9939;49.246;9.106;2023-12-29T15:20:10;4.40;;;2.00;;
19585;SDS011;9939;49.246;9.106;2023-12-29T15:22:37;4.50;;;1.90;;
19585;SDS011;9939;49.246;9.106;2023-12-29T15:25:04;3.00;;;1.60;;
19585;SDS011;9939;49.246;9.106;2023-12-29T15:27:32;4.33;;;1.50;;
19585;SDS011;9939;49.246;9.106;2023-12-29T15:29:59;4.03;;;1.70;;
19585;SDS011;9939;49.246;9.106;2023-12-29T15:32:27;3.37;;;1.80;;
19585;SDS011;9939;49.246;9.106;2023-12-29T15:34:54;3.93;;;1.70;;
19585;SDS011;9939;49.246;9.106;2023-12-29T15:37:21;3.53;;;1.70;;
19585;SDS011;9939;49.246;9.106;2023-12-29T15:39:49;3.30;;;1.80;;